createdAt,value
2019-04-04T00:01:02.405Z,7.39
2019-04-04T00:03:33.618Z,7.44
2019-04-04T00:06:05.965Z,7.44
2019-04-04T00:08:37.173Z,7.53
2019-04-04T00:11:08.468Z,7.57
2019-04-04T00:13:40.038Z,7.63
2019-04-04T00:16:15.612Z,7.60
2019-04-04T00:18:45.519Z,7.54
2019-04-04T00:21:16.712Z,7.28
2019-04-04T00:23:47.846Z,7.22
2019-04-04T00:26:19.089Z,7.19
2019-04-04T00:28:51.584Z,7.13
2019-04-04T00:31:23.159Z,7.11
2019-04-04T00:33:55.836Z,7.21
2019-04-04T00:36:27.148Z,7.05
2019-04-04T00:38:58.256Z,6.86
2019-04-04T00:41:29.415Z,6.70
2019-04-04T00:44:02.332Z,6.69
2019-04-04T00:46:33.848Z,6.70
2019-04-04T00:49:05.451Z,6.64
2019-04-04T00:51:38.689Z,6.69
2019-04-04T00:54:09.465Z,6.76
2019-04-04T00:56:40.559Z,6.89
2019-04-04T00:59:12.028Z,6.83
2019-04-04T01:01:43.124Z,6.93
2019-04-04T01:04:14.329Z,6.93
2019-04-04T01:06:45.479Z,6.88
2019-04-04T01:09:17.037Z,6.71
2019-04-04T01:11:50.974Z,6.58
2019-04-04T01:14:21.110Z,6.46
2019-04-04T01:16:52.271Z,6.56
2019-04-04T01:19:24.068Z,6.63
2019-04-04T01:21:55.250Z,6.59
2019-04-04T01:24:28.847Z,6.57
2019-04-04T01:27:28.357Z,6.51
2019-04-04T01:30:00.992Z,6.22
2019-04-04T01:32:33.162Z,6.22
2019-04-04T01:35:04.481Z,6.11
2019-04-04T01:37:35.867Z,5.91
2019-04-04T01:40:07.124Z,5.91
2019-04-04T01:42:38.939Z,5.76
2019-04-04T01:45:12.868Z,5.58
2019-04-04T01:47:43.679Z,5.38
2019-04-04T01:50:14.862Z,5.46
2019-04-04T01:52:46.236Z,5.38
2019-04-04T01:55:17.495Z,5.26
2019-04-04T01:57:48.679Z,5.35
2019-04-04T02:00:19.871Z,5.58
2019-04-04T02:02:51.832Z,5.60
2019-04-04T02:05:26.812Z,5.78
2019-04-04T02:07:56.744Z,5.74
2019-04-04T02:10:28.298Z,5.67
2019-04-04T02:12:59.516Z,5.50
2019-04-04T02:15:30.726Z,5.47
2019-04-04T02:18:01.900Z,5.58
2019-04-04T02:20:33.234Z,5.51
2019-04-04T02:23:04.410Z,5.48
2019-04-04T02:25:35.600Z,5.42
2019-04-04T02:28:06.924Z,5.34
2019-04-04T02:30:39.720Z,5.18
2019-04-04T02:33:10.898Z,5.17
2019-04-04T02:35:43.727Z,5.02
2019-04-04T02:38:15.022Z,4.83
2019-04-04T02:41:04.086Z,4.82
2019-04-04T02:43:36.521Z,5.06
2019-04-04T02:46:44.741Z,5.02
2019-04-04T02:49:07.127Z,4.84
2019-04-04T02:51:41.166Z,4.92
2019-04-04T02:54:11.402Z,4.97
2019-04-04T02:56:43.046Z,5.05
2019-04-04T02:59:17.240Z,5.09
2019-04-04T03:01:47.192Z,5.23
2019-04-04T03:04:38.278Z,5.30
2019-04-04T03:07:10.099Z,5.49
2019-04-04T03:10:35.887Z,5.25
2019-04-04T03:13:55.383Z,4.65
2019-04-04T03:16:27.697Z,4.77
2019-04-04T03:18:58.876Z,4.76
2019-04-04T03:25:14.710Z,4.86
2019-04-04T03:27:45.865Z,5.01
2019-04-04T03:30:17.748Z,4.94
2019-04-04T03:32:54.327Z,4.65
2019-04-04T03:35:28.069Z,4.66
2019-04-04T03:37:54.848Z,4.47
2019-04-04T03:40:43.775Z,4.60
2019-04-04T03:43:07.356Z,4.47
2019-04-04T03:45:38.686Z,4.59
2019-04-04T03:48:18.800Z,4.63
2019-04-04T03:51:05.056Z,4.43
2019-04-04T03:53:57.482Z,4.34
2019-04-04T03:56:33.266Z,4.37
2019-04-04T03:59:05.703Z,4.54
2019-04-04T04:02:08.686Z,4.51
2019-04-04T04:04:39.883Z,4.32
2019-04-04T04:07:20.420Z,4.12
2019-04-04T04:09:51.658Z,4.09
2019-04-04T04:12:22.960Z,4.04
2019-04-04T04:14:55.385Z,3.90
2019-04-04T04:18:04.380Z,3.64
2019-04-04T04:20:37.529Z,3.62
2019-04-04T04:23:08.447Z,3.88
2019-04-04T04:25:44.956Z,3.83
2019-04-04T04:28:19.777Z,4.01
2019-04-04T04:30:49.023Z,3.92
2019-04-04T04:33:20.274Z,4.13
2019-04-04T04:35:51.544Z,4.15
2019-04-04T04:38:25.492Z,4.06
2019-04-04T04:41:04.962Z,4.02
2019-04-04T04:43:41.334Z,4.02
2019-04-04T04:46:33.288Z,4.02
2019-04-04T04:49:04.485Z,3.97
2019-04-04T04:51:36.247Z,3.75
2019-04-04T04:54:52.339Z,3.77
2019-04-04T04:57:38.218Z,3.76
2019-04-04T05:00:41.654Z,3.58
2019-04-04T05:03:32.421Z,3.57
2019-04-04T05:05:57.136Z,3.35
2019-04-04T05:08:31.886Z,3.63
2019-04-04T05:11:16.800Z,3.74
2019-04-04T05:14:07.276Z,3.71
2019-04-04T05:16:56.270Z,3.78
2019-04-04T05:19:27.613Z,3.85
2019-04-04T05:21:58.818Z,4.03
2019-04-04T05:24:30.054Z,4.09
2019-04-04T05:27:20.232Z,4.29
2019-04-04T05:29:51.377Z,4.38
2019-04-04T05:32:23.153Z,4.23
2019-04-04T05:35:10.657Z,4.41
2019-04-04T05:37:42.023Z,4.49
2019-04-04T05:43:28.489Z,4.41
2019-04-04T05:46:08.640Z,4.36
2019-04-04T05:48:39.856Z,4.16
2019-04-04T05:51:11.189Z,4.08
2019-04-04T05:54:13.597Z,4.12
2019-04-04T05:56:48.777Z,4.13
2019-04-04T06:02:14.431Z,4.00
2019-04-04T06:08:32.143Z,3.85
2019-04-04T06:11:24.997Z,3.68
2019-04-04T06:14:00.670Z,3.69
2019-04-04T06:16:43.164Z,3.81
2019-04-04T06:19:14.985Z,3.82
2019-04-04T06:21:49.619Z,3.87
2019-04-04T06:24:19.282Z,3.70
2019-04-04T06:27:48.181Z,3.65
2019-04-04T06:30:25.098Z,3.39
2019-04-04T06:33:19.135Z,3.59
2019-04-04T06:35:58.287Z,3.53
2019-04-04T06:38:32.140Z,3.48
2019-04-04T06:41:03.652Z,3.71
2019-04-04T06:43:34.892Z,3.89
2019-04-04T06:46:26.131Z,3.96
2019-04-04T06:48:57.328Z,4.04
2019-04-04T06:51:28.538Z,4.18
2019-04-04T06:54:01.386Z,4.08
2019-04-04T06:56:33.009Z,4.20
2019-04-04T06:59:04.237Z,4.40
2019-04-04T07:01:35.468Z,4.50
2019-04-04T07:04:06.657Z,4.61
2019-04-04T07:06:37.848Z,4.69
2019-04-04T07:09:09.332Z,4.87
2019-04-04T07:11:40.656Z,4.96
2019-04-04T07:14:11.842Z,4.95
2019-04-04T07:16:43.091Z,5.14
2019-04-04T07:19:15.122Z,5.33
2019-04-04T07:21:46.459Z,5.54
2019-04-04T07:24:17.675Z,5.73
2019-04-04T07:26:49.344Z,6.29
2019-04-04T07:29:20.515Z,6.70
2019-04-04T07:31:52.438Z,7.25
2019-04-04T07:34:24.186Z,7.17
2019-04-04T07:36:55.338Z,7.01
2019-04-04T07:39:26.605Z,7.12
2019-04-04T07:41:57.819Z,7.26
2019-04-04T07:44:28.999Z,7.19
2019-04-04T07:47:00.213Z,7.06
2019-04-04T07:49:31.505Z,6.90
2019-04-04T07:52:02.774Z,6.69
2019-04-04T07:54:34.020Z,6.62
2019-04-04T07:57:05.247Z,6.56
2019-04-04T07:59:36.418Z,6.68
2019-04-04T08:02:07.652Z,6.73
2019-04-04T08:04:39.013Z,6.59
2019-04-04T08:07:10.248Z,6.91
2019-04-04T08:09:41.482Z,6.95
2019-04-04T08:12:12.787Z,7.12
2019-04-04T08:14:44.015Z,8.06
2019-04-04T08:17:15.290Z,8.56
2019-04-04T08:19:58.909Z,9.38
2019-04-04T08:22:19.682Z,9.70
2019-04-04T08:24:52.175Z,10.23
2019-04-04T08:27:23.478Z,10.07
2019-04-04T08:29:54.718Z,11.49
2019-04-04T08:32:25.962Z,12.58
2019-04-04T08:34:57.201Z,11.67
2019-04-04T08:37:28.398Z,11.78
2019-04-04T08:39:59.603Z,11.09
2019-04-04T08:42:30.904Z,10.47
2019-04-04T08:45:02.125Z,10.53
2019-04-04T08:47:33.360Z,10.39
2019-04-04T08:50:04.837Z,10.46
2019-04-04T08:52:36.075Z,10.43
2019-04-04T08:55:07.713Z,9.84
2019-04-04T08:57:38.932Z,10.30
2019-04-04T09:00:10.186Z,10.39
2019-04-04T09:02:41.669Z,10.36
2019-04-04T09:05:12.931Z,10.76
2019-04-04T09:07:44.105Z,10.69
2019-04-04T09:10:15.408Z,10.59
2019-04-04T09:12:47.534Z,10.71
2019-04-04T09:15:18.780Z,10.55
2019-04-04T09:17:49.980Z,10.56
2019-04-04T09:20:21.210Z,10.51
2019-04-04T09:22:52.446Z,10.43
2019-04-04T09:25:23.629Z,10.09
2019-04-04T09:27:54.862Z,10.43
2019-04-04T09:30:26.089Z,10.68
2019-04-04T09:32:58.625Z,11.28
2019-04-04T09:35:29.819Z,11.89
2019-04-04T09:38:01.051Z,11.96
2019-04-04T09:40:32.307Z,12.88
2019-04-04T09:43:03.702Z,12.80
2019-04-04T09:45:35.087Z,12.70
2019-04-04T09:48:06.361Z,12.53
2019-04-04T09:50:37.536Z,12.09
2019-04-04T09:53:08.783Z,12.00
2019-04-04T09:55:39.975Z,12.40
2019-04-04T09:58:11.211Z,12.81
2019-04-04T10:00:42.566Z,12.54
2019-04-04T10:03:15.150Z,13.03
2019-04-04T10:05:46.381Z,13.23
2019-04-04T10:08:17.586Z,13.42
2019-04-04T10:10:48.842Z,13.92
2019-04-04T10:13:20.083Z,14.57
2019-04-04T10:15:51.328Z,14.63
2019-04-04T10:18:22.992Z,14.02
2019-04-04T10:20:55.242Z,13.73
2019-04-04T10:23:26.429Z,14.09
2019-04-04T10:25:57.656Z,14.90
2019-04-04T10:28:28.906Z,14.76
2019-04-04T10:31:00.134Z,13.39
2019-04-04T10:33:31.377Z,12.79
2019-04-04T10:36:02.578Z,12.58
2019-04-04T10:38:33.886Z,12.52
2019-04-04T10:41:05.090Z,12.41
2019-04-04T10:43:36.364Z,13.15
2019-04-04T10:46:07.562Z,13.63
2019-04-04T10:48:38.767Z,13.62
2019-04-04T10:51:09.979Z,14.04
2019-04-04T10:53:41.570Z,13.36
2019-04-04T10:56:12.794Z,13.51
2019-04-04T10:58:44.021Z,13.02
2019-04-04T11:01:15.349Z,12.68
2019-04-04T11:03:46.552Z,13.51
2019-04-04T11:06:17.787Z,13.31
2019-04-04T11:08:49.008Z,13.74
2019-04-04T11:11:20.262Z,13.69
2019-04-04T11:13:51.465Z,13.08
2019-04-04T11:16:30.157Z,13.73
2019-04-04T11:18:56.080Z,12.95
2019-04-04T11:21:27.402Z,13.11
2019-04-04T11:23:58.620Z,13.58
2019-04-04T11:26:29.922Z,13.42
2019-04-04T11:29:01.120Z,14.24
2019-04-04T11:31:32.452Z,13.46
2019-04-04T11:34:03.654Z,13.90
2019-04-04T11:36:34.871Z,13.51
2019-04-04T11:39:07.668Z,13.51
2019-04-04T11:41:38.860Z,14.15
2019-04-04T11:44:10.190Z,13.81
2019-04-04T11:46:41.369Z,13.62
2019-04-04T11:49:12.572Z,13.69
2019-04-04T11:51:43.794Z,13.86
2019-04-04T11:54:15.109Z,12.96
2019-04-04T11:56:46.309Z,12.91
2019-04-04T11:59:17.501Z,12.82
2019-04-04T12:01:48.931Z,12.99
2019-04-04T12:04:20.139Z,12.86
2019-04-04T12:06:51.619Z,12.40
2019-04-04T12:09:22.881Z,12.34
2019-04-04T12:11:54.157Z,12.22
2019-04-04T12:14:25.340Z,11.74
2019-04-04T12:16:56.528Z,11.82
2019-04-04T12:19:27.809Z,11.62
2019-04-04T12:22:00.047Z,11.72
2019-04-04T12:24:31.391Z,11.57
2019-04-04T12:27:02.837Z,11.52
2019-04-04T12:29:34.112Z,11.61
2019-04-04T12:32:05.327Z,11.64
2019-04-04T12:34:36.528Z,11.87
2019-04-04T12:37:07.975Z,11.86
2019-04-04T12:39:39.157Z,12.14
2019-04-04T12:42:11.260Z,11.87
2019-04-04T12:44:43.946Z,11.66
2019-04-04T12:47:15.154Z,11.77
2019-04-04T12:49:46.380Z,11.71
2019-04-04T12:52:17.642Z,11.54
2019-04-04T12:54:48.818Z,11.54
2019-04-04T12:57:20.337Z,11.41
2019-04-04T12:59:51.699Z,11.16
2019-04-04T13:02:22.870Z,10.92
2019-04-04T13:04:54.227Z,10.93
2019-04-04T13:07:25.413Z,10.94
2019-04-04T13:09:56.636Z,10.99
2019-04-04T13:12:27.836Z,11.14
2019-04-04T13:14:59.160Z,11.15
2019-04-04T13:17:30.517Z,11.13
2019-04-04T13:20:02.139Z,11.08
2019-04-04T13:22:33.652Z,11.08
2019-04-04T13:25:05.432Z,10.96
2019-04-04T13:27:36.695Z,10.98
2019-04-04T13:30:10.989Z,10.80
2019-04-04T13:32:42.160Z,10.97
2019-04-04T13:35:13.385Z,11.04
2019-04-04T13:37:44.619Z,11.01
2019-04-04T13:40:15.802Z,10.88
2019-04-04T13:42:47.028Z,10.95
2019-04-04T13:45:18.333Z,10.91
2019-04-04T13:47:49.552Z,11.06
2019-04-04T13:50:20.758Z,10.98
2019-04-04T13:52:51.949Z,11.02
2019-04-04T13:55:25.160Z,11.13
2019-04-04T13:57:56.498Z,10.88
2019-04-04T14:00:27.681Z,10.80
2019-04-04T14:02:58.911Z,10.82
2019-04-04T14:05:30.283Z,10.78
2019-04-04T14:08:01.513Z,10.87
2019-04-04T14:10:33.502Z,10.88
2019-04-04T14:13:04.763Z,10.67
2019-04-04T14:15:37.108Z,10.69
2019-04-04T14:18:23.747Z,10.76
2019-04-04T14:21:03.345Z,10.71
2019-04-04T14:23:29.283Z,10.55
2019-04-04T14:26:00.747Z,10.62
2019-04-04T14:28:32.018Z,10.55
2019-04-04T14:31:03.193Z,10.50
2019-04-04T14:33:34.392Z,10.45
2019-04-04T14:36:06.555Z,10.36
2019-04-04T14:38:37.778Z,10.41
2019-04-04T14:41:11.387Z,10.44
2019-04-04T14:43:41.867Z,10.45
2019-04-04T14:46:13.158Z,10.30
2019-04-04T14:48:44.560Z,10.38
2019-04-04T14:51:15.874Z,10.31
2019-04-04T14:53:47.166Z,10.35
2019-04-04T14:56:18.474Z,10.20
2019-04-04T14:58:49.679Z,10.16
2019-04-04T15:01:20.998Z,10.28
2019-04-04T15:03:52.186Z,10.17
2019-04-04T15:06:23.766Z,10.17
2019-04-04T15:08:55.084Z,10.28
2019-04-04T15:11:26.395Z,10.24
2019-04-04T15:13:57.707Z,10.16
2019-04-04T15:16:28.909Z,10.23
2019-04-04T15:19:00.155Z,10.23
2019-04-04T15:21:31.338Z,10.32
2019-04-04T15:24:02.566Z,10.63
2019-04-04T15:26:34.815Z,10.41
2019-04-04T15:29:06.069Z,10.63
2019-04-04T15:31:37.248Z,10.27
2019-04-04T15:34:08.759Z,10.13
2019-04-04T15:36:39.995Z,10.26
2019-04-04T15:39:11.166Z,10.14
2019-04-04T15:41:42.398Z,10.33
2019-04-04T15:44:13.615Z,10.38
2019-04-04T15:46:45.062Z,10.29
2019-04-04T15:49:16.384Z,10.08
2019-04-04T15:51:47.894Z,10.09
2019-04-04T15:54:19.123Z,9.94
2019-04-04T15:56:50.480Z,10.02
2019-04-04T15:59:21.724Z,10.04
2019-04-04T16:01:53.093Z,9.97
2019-04-04T16:04:24.391Z,9.86
2019-04-04T16:06:55.615Z,9.82
2019-04-04T16:09:26.882Z,9.90
2019-04-04T16:11:58.443Z,9.66
2019-04-04T16:14:29.728Z,9.82
2019-04-04T16:17:00.962Z,9.74
2019-04-04T16:19:32.142Z,9.76
2019-04-04T16:22:04.669Z,9.82
2019-04-04T16:24:37.544Z,9.79
2019-04-04T16:27:08.706Z,9.81
2019-04-04T16:29:39.940Z,9.77
2019-04-04T16:32:11.188Z,10.00
2019-04-04T16:34:42.490Z,10.01
2019-04-04T16:37:14.046Z,10.07
2019-04-04T16:39:45.284Z,10.16
2019-04-04T16:42:16.465Z,10.05
2019-04-04T16:44:47.764Z,10.19
2019-04-04T16:47:18.942Z,10.14
2019-04-04T16:49:50.232Z,9.97
2019-04-04T16:52:21.452Z,9.90
2019-04-04T16:54:53.843Z,9.78
2019-04-04T16:57:25.217Z,9.76
2019-04-04T16:59:56.481Z,9.70
2019-04-04T17:02:27.672Z,9.74
2019-04-04T17:04:58.924Z,9.68
2019-04-04T17:07:30.434Z,9.71
2019-04-04T17:10:01.618Z,9.62
2019-04-04T17:12:33.047Z,9.64
2019-04-04T17:15:04.488Z,9.71
2019-04-04T17:17:36.713Z,9.69
2019-04-04T17:20:07.951Z,9.74
2019-04-04T17:22:40.648Z,9.73
2019-04-04T17:25:11.865Z,9.75
2019-04-04T17:27:43.062Z,9.72
2019-04-04T17:30:14.221Z,9.74
2019-04-04T17:32:48.639Z,9.74
2019-04-04T17:35:18.890Z,9.72
2019-04-04T17:37:50.351Z,9.61
2019-04-04T17:40:21.807Z,9.69
2019-04-04T17:42:53.290Z,9.75
2019-04-04T17:45:25.341Z,9.78
2019-04-04T17:47:56.891Z,9.70
2019-04-04T17:50:28.262Z,9.64
2019-04-04T17:52:59.452Z,9.75
2019-04-04T17:55:31.091Z,9.63
2019-04-04T17:58:02.508Z,9.68
2019-04-04T18:00:34.867Z,9.67
2019-04-04T18:03:06.041Z,9.74
2019-04-04T18:05:37.325Z,9.77
2019-04-04T18:08:08.548Z,9.77
2019-04-04T18:10:39.742Z,9.69
2019-04-04T18:13:10.913Z,9.61
2019-04-04T18:15:42.112Z,9.69
2019-04-04T18:18:13.278Z,9.72
2019-04-04T18:20:44.549Z,9.63
2019-04-04T18:23:16.024Z,9.63
2019-04-04T18:25:47.197Z,9.72
2019-04-04T18:28:18.362Z,9.69
2019-04-04T18:30:49.607Z,9.65
2019-04-04T18:33:21.967Z,9.77
2019-04-04T18:35:53.168Z,9.79
2019-04-04T18:38:25.060Z,9.80
2019-04-04T18:40:56.278Z,9.77
2019-04-04T18:43:27.575Z,9.77
2019-04-04T18:45:58.766Z,9.72
2019-04-04T18:48:30.047Z,9.70
2019-04-04T18:51:01.272Z,9.77
2019-04-04T18:53:33.020Z,9.80
2019-04-04T18:56:04.258Z,9.67
2019-04-04T18:58:35.477Z,9.71
2019-04-04T19:01:06.707Z,9.67
2019-04-04T19:03:38.026Z,9.65
2019-04-04T19:06:09.225Z,9.51
2019-04-04T19:08:40.494Z,9.53
2019-04-04T19:11:11.716Z,9.49
2019-04-04T19:13:44.407Z,9.51
2019-04-04T19:16:16.058Z,9.55
2019-04-04T19:18:47.273Z,9.51
2019-04-04T19:21:18.865Z,9.50
2019-04-04T19:23:50.756Z,9.49
2019-04-04T19:26:23.891Z,9.52
2019-04-04T19:28:55.144Z,9.51
2019-04-04T19:31:26.366Z,9.50
2019-04-04T19:33:57.539Z,9.47
2019-04-04T19:36:28.790Z,9.44
2019-04-04T19:39:00.108Z,9.48
2019-04-04T19:41:31.810Z,9.45
2019-04-04T19:44:03.254Z,9.41
2019-04-04T19:46:37.152Z,9.40
2019-04-04T19:49:08.187Z,9.41
2019-04-04T19:51:39.374Z,9.31
2019-04-04T19:54:10.563Z,9.36
2019-04-04T19:56:41.804Z,9.42
2019-04-04T19:59:13.096Z,9.41
2019-04-04T20:01:44.629Z,9.36
2019-04-04T20:04:15.844Z,9.40
2019-04-04T20:06:47.057Z,9.32
2019-04-04T20:09:18.257Z,9.42
2019-04-04T20:11:50.049Z,9.42
2019-04-04T20:14:21.346Z,9.49
2019-04-04T20:16:53.531Z,9.52
2019-04-04T20:19:24.728Z,9.52
2019-04-04T20:21:57.547Z,9.55
2019-04-04T20:24:30.822Z,9.56
2019-04-04T20:27:06.284Z,9.50
2019-04-04T20:29:40.900Z,9.39
2019-04-04T20:32:14.944Z,9.35
2019-04-04T20:34:48.069Z,9.39
2019-04-04T20:37:22.516Z,9.36
2019-04-04T20:39:55.779Z,9.40
2019-04-04T20:42:31.647Z,9.34
2019-04-04T20:45:02.783Z,9.37
2019-04-04T20:47:38.584Z,9.30
2019-04-04T20:50:12.841Z,9.31
2019-04-04T20:52:44.165Z,9.36
2019-04-04T20:55:15.703Z,9.41
2019-04-04T20:57:46.952Z,9.41
2019-04-04T21:00:18.307Z,9.40
2019-04-04T21:02:49.518Z,9.33
2019-04-04T21:05:22.850Z,9.36
2019-04-04T21:07:54.113Z,9.27
2019-04-04T21:10:25.582Z,9.30
2019-04-04T21:13:02.488Z,9.30
2019-04-04T21:15:35.447Z,9.28
2019-04-04T21:18:07.205Z,9.26
2019-04-04T21:20:39.839Z,9.24
2019-04-04T21:23:11.459Z,9.38
2019-04-04T21:25:42.657Z,9.29
2019-04-04T21:28:14.326Z,9.28
2019-04-04T21:30:47.129Z,9.15
2019-04-04T21:33:18.364Z,9.10
2019-04-04T21:35:49.563Z,9.22
2019-04-04T21:38:20.738Z,9.29
2019-04-04T21:40:52.305Z,9.23
2019-04-04T21:43:24.810Z,9.17
2019-04-04T21:45:56.401Z,9.06
2019-04-04T21:48:27.714Z,9.18
2019-04-04T21:50:59.160Z,9.32
2019-04-04T21:53:31.188Z,9.34
2019-04-04T21:56:02.376Z,9.29
2019-04-04T21:58:33.575Z,9.29
2019-04-04T22:01:04.764Z,9.34
2019-04-04T22:03:36.775Z,9.27
2019-04-04T22:06:08.066Z,9.12
2019-04-04T22:08:39.388Z,9.16
2019-04-04T22:11:10.660Z,9.17
2019-04-04T22:13:41.908Z,9.00
2019-04-04T22:16:13.543Z,8.93
2019-04-04T22:18:44.725Z,9.01
2019-04-04T22:21:15.908Z,8.89
2019-04-04T22:23:47.096Z,8.84
2019-04-04T22:26:18.262Z,8.77
2019-04-04T22:28:50.461Z,8.55
2019-04-04T22:31:22.227Z,8.49
2019-04-04T22:33:53.411Z,8.48
2019-04-04T22:36:25.947Z,8.42
2019-04-04T22:38:57.119Z,8.42
2019-04-04T22:41:28.650Z,8.42
2019-04-04T22:44:03.754Z,8.45
2019-04-04T22:46:32.724Z,8.62
2019-04-04T22:49:03.919Z,8.56
2019-04-04T22:51:35.148Z,8.58
2019-04-04T22:54:06.367Z,8.33
2019-04-04T22:56:37.563Z,8.56
2019-04-04T22:59:08.757Z,8.57
2019-04-04T23:01:40.424Z,8.40
2019-04-04T23:04:11.652Z,8.44
2019-04-04T23:06:42.857Z,8.18
2019-04-04T23:09:14.487Z,8.27
2019-04-04T23:11:45.714Z,8.40
2019-04-04T23:14:16.905Z,8.46
2019-04-04T23:17:01.871Z,8.56
2019-04-04T23:19:33.345Z,8.57
2019-04-04T23:22:04.975Z,8.52
2019-04-04T23:24:36.193Z,8.33
2019-04-04T23:27:07.421Z,8.29
2019-04-04T23:29:42.502Z,8.38
2019-04-04T23:32:12.620Z,8.46
2019-04-04T23:34:43.861Z,8.51
2019-04-04T23:37:15.281Z,8.52
2019-04-04T23:39:46.565Z,8.48
2019-04-04T23:42:17.769Z,8.49
2019-04-04T23:47:22.233Z,8.45
2019-04-04T23:49:53.553Z,8.35
2019-04-04T23:52:26.591Z,8.45
2019-04-04T23:54:57.915Z,8.43
2019-04-04T23:57:29.343Z,8.32
